Time;durP1;ratioP1;P1;durP2;ratioP2;P2;SDS_P1;SDS_P2;PMS_P1;PMS_P2;Temp;Humidity;BMP_temperature;BMP_pressure;BME280_temperature;BME280_humidity;BME280_pressure;Samples;Min_cycle;Max_cycle;Signal;HPM_P1;HPM_P2
2022/07/18 00:02:02;;;;;;;5.72;2.15;;;15.20;54.90;;;;;;5035174;28;20034;-68
2022/07/18 00:04:29;;;;;;;5.47;2.45;;;15.10;54.80;;;;;;5001153;28;20391;-68
2022/07/18 00:06:54;;;;;;;2.40;1.40;;;15.20;54.80;;;;;;5044141;28;20025;-69
2022/07/18 00:09:22;;;;;;;2.60;1.60;;;15.10;55.20;;;;;;5041156;28;20491;-68
2022/07/18 00:11:48;;;;;;;2.63;1.63;;;15.00;55.70;;;;;;5036939;28;20018;-68
2022/07/18 00:14:13;;;;;;;5.50;1.58;;;14.90;55.90;;;;;;5047898;28;20025;-68
2022/07/18 00:16:39;;;;;;;2.97;1.20;;;14.90;56.20;;;;;;5036026;28;20040;-69
2022/07/18 00:19:06;;;;;;;3.05;1.38;;;14.80;56.60;;;;;;5042015;28;20033;-68
2022/07/18 00:21:32;;;;;;;7.18;1.80;;;14.80;56.50;;;;;;5043378;28;20025;-68
2022/07/18 00:23:57;;;;;;;4.05;1.60;;;14.80;56.80;;;;;;5035397;28;20543;-69
2022/07/18 00:26:23;;;;;;;3.22;1.48;;;14.70;57.00;;;;;;5029347;28;20029;-68
2022/07/18 00:28:49;;;;;;;4.15;1.52;;;14.60;57.40;;;;;;5036759;28;20075;-69
2022/07/18 00:31:14;;;;;;;2.97;1.67;;;14.50;57.40;;;;;;5043275;28;20037;-69
2022/07/18 00:33:40;;;;;;;2.17;1.58;;;14.50;57.90;;;;;;5047986;28;20372;-69
2022/07/18 00:36:06;;;;;;;5.40;1.98;;;14.50;57.90;;;;;;5019996;28;20028;-68
2022/07/18 00:38:31;;;;;;;3.03;1.40;;;14.50;58.20;;;;;;5048964;28;20056;-68
2022/07/18 00:40:57;;;;;;;5.10;1.80;;;14.40;58.40;;;;;;5047027;28;20026;-68
2022/07/18 00:43:23;;;;;;;3.13;1.73;;;14.40;58.30;;;;;;5026092;28;20028;-67
2022/07/18 00:45:49;;;;;;;4.22;1.45;;;14.40;58.30;;;;;;5039694;28;20029;-68
2022/07/18 00:48:15;;;;;;;4.00;1.52;;;14.40;58.50;;;;;;5049660;28;20029;-66
2022/07/18 00:50:42;;;;;;;3.28;1.50;;;14.30;58.70;;;;;;5039031;28;20470;-67
2022/07/18 00:53:10;;;;;;;1.85;1.48;;;14.20;58.90;;;;;;5045118;28;20029;-67
2022/07/18 00:55:37;;;;;;;5.40;1.42;;;14.10;59.50;;;;;;5046838;28;20078;-67
2022/07/18 00:58:03;;;;;;;2.58;1.23;;;14.00;59.70;;;;;;5018995;28;20033;-67
2022/07/18 01:03:13;;;;;;;11.43;2.40;;;14.00;60.00;;;;;;5043999;28;20087;-67
2022/07/18 01:05:38;;;;;;;4.75;1.52;;;13.80;60.30;;;;;;5041298;28;20025;-68
2022/07/18 01:08:04;;;;;;;3.42;1.52;;;13.80;60.50;;;;;;5051157;28;20025;-69
2022/07/18 01:10:30;;;;;;;3.75;1.65;;;13.80;60.40;;;;;;5039047;28;20020;-69
2022/07/18 01:12:55;;;;;;;3.45;1.67;;;13.80;60.30;;;;;;5047296;28;20036;-69
2022/07/18 01:15:21;;;;;;;6.18;1.75;;;13.70;60.40;;;;;;5044734;28;20060;-69
2022/07/18 01:17:47;;;;;;;3.00;1.20;;;13.80;60.80;;;;;;5021369;28;20025;-69
2022/07/18 01:20:12;;;;;;;4.13;1.25;;;13.80;60.60;;;;;;5050363;28;20104;-69
2022/07/18 01:22:41;;;;;;;3.85;1.45;;;13.80;60.40;;;;;;5038684;28;20092;-69
2022/07/18 01:25:07;;;;;;;4.47;1.40;;;13.70;60.70;;;;;;5044914;28;20395;-69
2022/07/18 01:27:32;;;;;;;2.63;1.60;;;13.60;60.90;;;;;;5045203;28;20443;-68
2022/07/18 01:29:58;;;;;;;6.13;1.73;;;13.60;60.90;;;;;;5037476;28;20116;-68
2022/07/18 01:32:23;;;;;;;3.25;1.77;;;13.60;61.30;;;;;;5049872;28;20026;-68
2022/07/18 01:34:49;;;;;;;3.08;1.50;;;13.50;61.50;;;;;;5039778;28;20025;-68
2022/07/18 01:37:15;;;;;;;2.25;1.58;;;13.50;61.70;;;;;;5042577;28;20067;-68
2022/07/18 01:39:42;;;;;;;3.55;1.45;;;13.50;62.20;;;;;;5046826;28;20021;-68
2022/07/18 01:42:10;;;;;;;5.07;1.63;;;13.40;62.20;;;;;;5036114;28;20032;-69
2022/07/18 01:44:37;;;;;;;3.30;1.30;;;13.40;62.40;;;;;;5048907;28;20029;-68
2022/07/18 01:47:06;;;;;;;2.75;1.45;;;13.20;62.60;;;;;;5041111;28;20107;-68
2022/07/18 01:49:32;;;;;;;2.53;1.40;;;13.20;62.70;;;;;;5040783;28;20025;-68
2022/07/18 01:51:59;;;;;;;4.65;1.80;;;13.20;62.70;;;;;;5048829;28;20021;-68
2022/07/18 01:54:28;;;;;;;5.78;1.63;;;13.20;62.90;;;;;;5036241;28;20032;-68
2022/07/18 01:56:55;;;;;;;5.15;1.73;;;13.20;63.00;;;;;;5044834;28;20029;-68
2022/07/18 01:59:21;;;;;;;3.50;1.80;;;13.10;63.30;;;;;;5042945;28;20032;-68
2022/07/18 02:01:46;;;;;;;2.78;1.60;;;13.10;63.30;;;;;;5038360;28;20112;-66
2022/07/18 02:04:12;;;;;;;3.70;1.60;;;13.10;63.50;;;;;;5031039;28;20124;-67
2022/07/18 02:06:38;;;;;;;10.30;2.47;;;13.10;63.70;;;;;;5020022;28;20028;-68
2022/07/18 02:09:06;;;;;;;5.88;2.05;;;13.00;64.00;;;;;;5043381;28;20025;-67
2022/07/18 02:11:32;;;;;;;4.72;1.77;;;13.00;64.20;;;;;;5045463;28;20514;-67
2022/07/18 02:13:57;;;;;;;6.00;1.95;;;13.00;64.60;;;;;;5037398;28;20013;-67
2022/07/18 02:16:23;;;;;;;3.00;1.73;;;13.00;64.80;;;;;;5030845;28;20365;-69
2022/07/18 02:18:49;;;;;;;4.57;2.10;;;12.90;65.10;;;;;;5038095;28;20029;-68
2022/07/18 02:21:15;;;;;;;4.38;1.90;;;12.80;65.30;;;;;;5043138;28;20029;-68
2022/07/18 02:23:42;;;;;;;2.55;1.48;;;12.70;65.40;;;;;;5046423;28;20391;-69
2022/07/18 02:26:08;;;;;;;3.63;1.67;;;12.70;65.50;;;;;;5035663;28;20109;-68
2022/07/18 02:28:34;;;;;;;5.88;2.10;;;12.70;65.30;;;;;;5047041;28;20025;-68
2022/07/18 02:30:59;;;;;;;3.55;1.58;;;12.70;65.40;;;;;;5039864;28;20029;-68
2022/07/18 02:33:25;;;;;;;4.53;2.08;;;12.70;65.20;;;;;;5040646;28;20076;-68
2022/07/18 02:35:51;;;;;;;5.05;2.10;;;12.70;64.90;;;;;;5028976;28;20487;-68
2022/07/18 02:38:17;;;;;;;3.60;1.88;;;12.80;64.80;;;;;;5016409;28;20018;-68
2022/07/18 02:40:42;;;;;;;4.30;1.98;;;12.80;64.80;;;;;;5046225;28;20479;-67
2022/07/18 02:43:08;;;;;;;3.90;1.83;;;12.80;65.30;;;;;;5040643;28;20032;-68
2022/07/18 02:45:34;;;;;;;5.47;1.52;;;12.70;65.50;;;;;;5039038;28;20396;-68
2022/07/18 02:47:59;;;;;;;3.08;2.03;;;12.70;65.70;;;;;;5046806;28;20031;-68
2022/07/18 02:50:25;;;;;;;3.50;1.80;;;12.60;65.90;;;;;;5034859;28;20376;-67
2022/07/18 02:52:51;;;;;;;7.43;1.98;;;12.50;66.50;;;;;;5044667;28;20395;-67
2022/07/18 02:55:16;;;;;;;4.28;2.08;;;12.50;66.60;;;;;;5041345;28;20452;-68
2022/07/18 02:57:42;;;;;;;5.85;1.50;;;12.40;66.40;;;;;;5036864;28;20029;-68
2022/07/18 03:00:14;;;;;;;3.50;1.83;;;12.50;66.30;;;;;;5048203;28;20375;-68
2022/07/18 03:02:40;;;;;;;6.30;2.00;;;12.50;66.30;;;;;;5036415;28;20025;-68
2022/07/18 03:05:06;;;;;;;4.90;1.83;;;12.60;66.20;;;;;;5042913;28;20037;-67
2022/07/18 03:07:32;;;;;;;5.88;2.25;;;12.50;66.30;;;;;;5043265;28;20112;-68
2022/07/18 03:09:58;;;;;;;41.75;23.60;;;12.50;66.20;;;;;;5017680;28;20163;-69
2022/07/18 03:12:23;;;;;;;47.67;22.17;;;12.50;66.50;;;;;;5047654;28;20022;-68
2022/07/18 03:14:49;;;;;;;17.58;7.03;;;12.60;66.30;;;;;;5037441;28;20021;-69
2022/07/18 03:17:15;;;;;;;9.85;3.08;;;12.60;66.20;;;;;;5022651;28;20103;-67
2022/07/18 03:19:40;;;;;;;11.32;4.60;;;12.60;66.10;;;;;;5044656;28;20368;-69
2022/07/18 03:22:06;;;;;;;8.90;3.35;;;12.70;66.10;;;;;;5034675;28;20056;-68
2022/07/18 03:24:32;;;;;;;8.75;3.25;;;12.70;66.10;;;;;;5047104;28;20041;-68
2022/07/18 03:26:57;;;;;;;7.38;2.88;;;12.70;66.10;;;;;;5038457;28;20450;-68
2022/07/18 03:29:23;;;;;;;4.00;2.30;;;12.80;66.10;;;;;;5039333;28;20053;-68
2022/07/18 03:31:49;;;;;;;8.40;3.78;;;12.70;66.10;;;;;;5046236;28;20383;-67
2022/07/18 03:34:15;;;;;;;6.60;3.10;;;12.80;66.20;;;;;;5034166;28;20022;-68
2022/07/18 03:36:41;;;;;;;13.05;4.20;;;12.80;66.30;;;;;;5045695;28;20074;-67
2022/07/18 03:39:10;;;;;;;7.38;2.88;;;12.80;66.20;;;;;;5038866;28;20021;-68
2022/07/18 03:41:37;;;;;;;6.78;2.38;;;12.90;66.10;;;;;;5038794;28;20030;-68
2022/07/18 03:44:03;;;;;;;6.57;2.80;;;13.00;65.80;;;;;;5045719;28;20036;-68
2022/07/18 03:46:29;;;;;;;2.10;1.65;;;13.30;65.00;;;;;;5034268;28;20514;-68
2022/07/18 03:48:55;;;;;;;4.28;2.00;;;14.20;62.80;;;;;;5042893;28;20112;-68
2022/07/18 03:51:21;;;;;;;5.55;2.70;;;15.10;59.40;;;;;;5041850;28;20167;-69
2022/07/18 03:53:46;;;;;;;5.38;2.42;;;16.20;56.30;;;;;;5036634;28;20572;-69
2022/07/18 03:56:12;;;;;;;4.18;2.40;;;17.30;52.80;;;;;;5047294;28;20095;-68
2022/07/18 03:58:38;;;;;;;9.35;2.90;;;18.20;50.50;;;;;;5035138;28;20020;-67
2022/07/18 04:01:03;;;;;;;5.88;2.83;;;18.90;48.00;;;;;;5042163;28;20108;-66
2022/07/18 04:03:29;;;;;;;14.55;4.68;;;19.50;46.80;;;;;;5042688;28;20032;-67
2022/07/18 04:05:55;;;;;;;7.18;2.80;;;20.50;44.80;;;;;;5037694;28;20510;-68
2022/07/18 04:08:20;;;;;;;7.53;2.65;;;21.10;43.00;;;;;;5050190;28;20465;-68
2022/07/18 04:10:46;;;;;;;9.70;2.80;;;21.50;42.10;;;;;;5040459;28;20039;-69
2022/07/18 04:13:12;;;;;;;4.97;1.60;;;21.90;41.50;;;;;;5044919;28;20036;-68
2022/07/18 04:15:38;;;;;;;6.05;1.75;;;;;;;;;;5029621;28;20437;-70
2022/07/18 04:18:05;;;;;;;4.15;1.55;;;;;;;;;;5037092;28;20049;-68
2022/07/18 04:20:31;;;;;;;4.18;1.95;;;;;;;;;;5032415;28;20025;-67
2022/07/18 04:23:00;;;;;;;3.10;1.77;;;;;;;;;;5041913;28;20057;-67
2022/07/18 04:25:27;;;;;;;4.35;1.80;;;;;;;;;;5042890;28;20021;-68
2022/07/18 04:27:53;;;;;;;4.85;1.73;;;;;;;;;;5048444;28;20029;-68
2022/07/18 04:30:20;;;;;;;7.85;2.13;;;;;;;;;;5060559;22;20479;-68
2022/07/18 04:32:46;;;;;;;6.78;2.28;;;;;;;;;;5048139;28;20026;-65
2022/07/18 04:35:12;;;;;;;2.75;1.75;;;;;;;;;;5043583;28;20025;-66
2022/07/18 04:37:39;;;;;;;4.35;1.85;;;;;;;;;;5040525;28;20029;-66
2022/07/18 04:40:06;;;;;;;6.13;2.63;;;;;;;;;;5050805;28;20025;-66
2022/07/18 04:42:32;;;;;;;5.10;2.13;;;;;;;;;;5037512;28;20032;-67
2022/07/18 04:44:58;;;;;;;3.80;1.85;;;;;;;;;;5045963;28;20032;-67
2022/07/18 04:47:25;;;;;;;9.57;1.85;;;;;;;;;;5044320;28;20025;-67
2022/07/18 04:49:51;;;;;;;4.53;2.03;;;;;;;;;;5020946;28;20033;-67
2022/07/18 04:52:18;;;;;;;5.53;1.65;;;26.00;32.00;;;;;;5050483;28;20021;-67
2022/07/18 04:54:44;;;;;;;4.57;1.88;;;25.40;32.00;;;;;;5020438;28;20017;-66
2022/07/18 04:57:11;;;;;;;5.55;1.40;;;26.30;30.50;;;;;;5043959;28;20487;-64
2022/07/18 04:59:38;;;;;;;4.78;1.65;;;;;;;;;;5046196;28;20482;-67
2022/07/18 05:02:04;;;;;;;3.40;1.60;;;;;;;;;;5036848;28;20076;-67
2022/07/18 05:04:30;;;;;;;6.20;1.65;;;;;;;;;;5049689;28;20101;-66
2022/07/18 05:06:56;;;;;;;3.92;1.98;;;;;;;;;;5022894;28;20021;-67
2022/07/18 05:09:22;;;;;;;6.35;2.10;;;;;;;;;;5041754;28;20104;-67
2022/07/18 05:11:48;;;;;;;4.45;1.88;;;27.00;29.20;;;;;;5029827;28;20316;-67
2022/07/18 05:14:14;;;;;;;3.47;1.80;;;27.40;28.30;;;;;;5036780;28;20021;-68
2022/07/18 05:16:39;;;;;;;4.43;1.60;;;27.50;28.50;;;;;;5046816;28;20048;-67
2022/07/18 05:19:05;;;;;;;4.03;1.55;;;30.40;25.40;;;;;;5041518;28;20021;-67
2022/07/18 05:21:31;;;;;;;5.75;1.50;;;30.90;24.70;;;;;;5040730;28;20103;-69
2022/07/18 05:23:56;;;;;;;6.63;1.65;;;32.00;23.30;;;;;;5049151;28;20029;-68
2022/07/18 05:26:22;;;;;;;6.53;1.50;;;31.70;23.50;;;;;;5036294;28;20018;-67
2022/07/18 05:28:48;;;;;;;3.58;1.60;;;;;;;;;;5045986;28;20041;-67
2022/07/18 05:31:13;;;;;;;5.88;1.67;;;27.50;28.20;;;;;;5042325;28;20061;-67
2022/07/18 05:33:39;;;;;;;9.13;2.30;;;;;;;;;;5039547;28;20063;-69
2022/07/18 05:36:06;;;;;;;5.43;2.17;;;;;;;;;;5048954;28;20108;-67
2022/07/18 05:38:31;;;;;;;4.50;1.60;;;27.30;29.50;;;;;;5035854;28;20021;-68
2022/07/18 05:40:57;;;;;;;8.43;2.10;;;;;;;;;;5027090;28;20026;-66
2022/07/18 05:43:23;;;;;;;4.35;1.80;;;28.20;27.50;;;;;;5043686;28;20395;-66
2022/07/18 05:45:49;;;;;;;6.68;2.35;;;26.90;29.30;;;;;;5036209;28;20026;-67
2022/07/18 05:48:14;;;;;;;7.97;1.80;;;26.20;30.30;;;;;;5047943;28;20049;-66
2022/07/18 05:50:40;;;;;;;6.95;2.00;;;26.20;30.70;;;;;;5037670;28;20020;-69
2022/07/18 05:53:06;;;;;;;5.07;1.83;;;;;;;;;;5043740;28;20021;-67
2022/07/18 05:55:32;;;;;;;7.03;2.33;;;;;;;;;;5044654;28;20114;-68
2022/07/18 05:57:58;;;;;;;3.08;1.38;;;;;;;;;;5036083;28;20021;-67
2022/07/18 06:00:24;;;;;;;6.05;1.50;;;;;;;;;;5048790;28;20021;-68
2022/07/18 06:02:50;;;;;;;8.35;2.20;;;;;;;;;;5038621;28;20040;-68
2022/07/18 06:05:16;;;;;;;6.10;1.52;;;;;;;;;;5042124;28;20036;-67
2022/07/18 06:07:42;;;;;;;4.70;1.73;;;32.70;23.00;;;;;;5044941;28;20376;-67
2022/07/18 06:10:08;;;;;;;4.57;1.48;;;32.80;22.50;;;;;;5035545;28;20032;-69
2022/07/18 06:12:34;;;;;;;4.78;1.48;;;32.50;22.50;;;;;;5047529;28;20093;-68
2022/07/18 06:15:00;;;;;;;7.70;1.80;;;32.60;22.50;;;;;;5040179;28;20097;-67
2022/07/18 06:17:28;;;;;;;3.97;1.80;;;32.20;23.10;;;;;;5039706;28;20037;-68
2022/07/18 06:19:55;;;;;;;3.55;1.40;;;32.30;22.80;;;;;;5029553;28;20048;-69
2022/07/18 06:22:22;;;;;;;6.93;1.98;;;32.20;22.90;;;;;;5035037;28;20028;-68
2022/07/18 06:24:48;;;;;;;9.27;1.70;;;;;;;;;;5046023;28;20450;-69
2022/07/18 06:27:14;;;;;;;6.45;1.65;;;;;;;;;;5040861;28;20032;-69
2022/07/18 06:29:40;;;;;;;3.30;1.27;;;;;;;;;;5038171;28;20061;-69
2022/07/18 06:32:06;;;;;;;6.03;2.35;;;;;;;;;;5047718;28;20078;-69
2022/07/18 06:34:32;;;;;;;4.97;1.65;;;;;;;;;;5035685;28;20055;-68
2022/07/18 06:36:58;;;;;;;9.05;2.25;;;;;;;;;;5043323;28;20021;-67
2022/07/18 06:39:24;;;;;;;5.53;1.35;;;;;;;;;;5038835;28;20414;-69
2022/07/18 06:41:50;;;;;;;5.28;1.52;;;33.80;21.60;;;;;;5031627;28;20108;-70
2022/07/18 06:44:16;;;;;;;6.43;1.40;;;33.90;21.10;;;;;;5043386;28;20018;-68
2022/07/18 06:46:42;;;;;;;5.85;1.75;;;;;;;;;;5045720;28;20108;-66
2022/07/18 06:49:08;;;;;;;7.07;1.88;;;32.30;22.60;;;;;;5039373;28;20028;-67
2022/07/18 06:51:33;;;;;;;6.07;1.80;;;32.00;23.00;;;;;;5038231;28;20395;-67
2022/07/18 06:54:00;;;;;;;5.22;1.70;;;32.50;22.50;;;;;;5047132;28;20025;-67
2022/07/18 06:56:26;;;;;;;11.90;2.15;;;32.20;22.80;;;;;;5033306;28;20028;-67
2022/07/18 06:58:52;;;;;;;4.95;1.65;;;;;;;;;;5043677;28;20541;-68
2022/07/18 07:01:19;;;;;;;7.15;1.77;;;;;;;;;;5018538;28;20017;-69
2022/07/18 07:03:46;;;;;;;12.27;2.10;;;;;;;;;;5032922;28;20053;-68
2022/07/18 07:06:12;;;;;;;8.35;1.70;;;;;;;;;;5038975;28;20064;-67
2022/07/18 07:08:38;;;;;;;5.93;1.55;;;;;;;;;;5034736;28;20067;-68
2022/07/18 07:11:24;;;;;;;7.90;1.63;;;;;;;;;;5042407;28;20030;-66
2022/07/18 07:13:50;;;;;;;6.72;2.05;;;;;;;;;;5045785;28;20031;-70
2022/07/18 07:16:19;;;;;;;5.53;1.80;;;;;;;;;;5014191;28;20041;-70
2022/07/18 07:18:45;;;;;;;6.68;1.50;;;;;;;;;;5002126;28;20108;-67
2022/07/18 07:21:11;;;;;;;8.80;2.10;;;;;;;;;;5041670;28;20128;-67
2022/07/18 07:23:40;;;;;;;9.43;1.95;;;;;;;;;;5042735;28;20045;-67
2022/07/18 07:26:07;;;;;;;2.75;0.88;;;;;;;;;;5032186;28;20090;-74
2022/07/18 07:28:33;;;;;;;12.10;1.67;;;;;;;;;;5019653;28;20496;-74
2022/07/18 07:30:59;;;;;;;7.05;1.58;;;;;;;;;;5018544;28;20414;-71
2022/07/18 07:33:25;;;;;;;4.75;1.60;;;;;;;;;;5039076;28;20032;-70
2022/07/18 07:35:51;;;;;;;4.80;1.52;;;;;;;;;;5043963;28;20036;-72
2022/07/18 07:38:22;;;;;;;5.63;1.60;;;;;;;;;;5034236;28;20022;-73
2022/07/18 07:40:48;;;;;;;12.77;2.05;;;;;;;;;;5048884;28;20446;-69
2022/07/18 07:43:16;;;;;;;6.05;1.25;;;;;;;;;;5035120;28;20610;-69
2022/07/18 07:45:46;;;;;;;8.25;1.80;;;33.00;19.90;;;;;;5029023;28;20035;-73
2022/07/18 07:48:11;;;;;;;5.38;1.63;;;32.60;20.50;;;;;;5020539;28;20618;-70
2022/07/18 07:50:37;;;;;;;19.15;1.80;;;32.10;21.80;;;;;;5038477;28;20112;-73
2022/07/18 07:53:03;;;;;;;7.65;1.70;;;33.50;19.80;;;;;;5040694;28;20099;-68
2022/07/18 07:55:28;;;;;;;8.07;1.55;;;34.40;19.00;;;;;;5042678;28;20064;-69
2022/07/18 07:57:54;;;;;;;5.88;1.40;;;33.60;19.50;;;;;;5039823;28;20070;-66
2022/07/18 08:00:20;;;;;;;8.15;1.77;;;34.80;18.70;;;;;;5042579;28;20032;-68
2022/07/18 08:03:01;;;;;;;6.30;1.60;;;36.10;18.00;;;;;;5050373;28;20021;-73
2022/07/18 08:05:31;;;;;;;5.90;1.40;;;36.40;16.80;;;;;;5044232;28;20064;-73
2022/07/18 08:07:57;;;;;;;;;;;35.00;17.70;;;;;;5048698;28;20044;-75
2022/07/18 08:10:23;;;;;;;9.48;1.75;;;33.50;18.90;;;;;;5037448;28;19952;-72
2022/07/18 08:12:49;;;;;;;7.43;2.00;;;32.10;20.90;;;;;;5049822;28;20095;-69
2022/07/18 08:15:15;;;;;;;5.53;3.38;;;33.00;20.30;;;;;;5042104;28;20209;-72
2022/07/18 08:17:40;;;;;;;7.43;1.65;;;34.40;20.00;;;;;;5041575;28;20468;-70
2022/07/18 08:20:07;;;;;;;6.80;1.63;;;35.60;17.30;;;;;;5032518;28;20037;-67
2022/07/18 08:22:33;;;;;;;5.00;2.00;;;35.80;17.20;;;;;;5015296;28;20072;-67
2022/07/18 08:24:58;;;;;;;7.68;1.88;;;36.80;17.60;;;;;;5034039;28;20480;-68
2022/07/18 08:27:24;;;;;;;5.38;1.90;;;38.00;16.60;;;;;;5032862;28;20025;-70
2022/07/18 08:29:49;;;;;;;5.95;1.60;;;39.10;15.80;;;;;;5033509;28;20037;-64
2022/07/18 08:32:15;;;;;;;3.55;1.58;;;38.40;15.60;;;;;;5016791;28;20025;-65
2022/07/18 08:34:41;;;;;;;8.35;1.70;;;38.50;15.40;;;;;;5034312;28;20033;-66
2022/07/18 08:37:06;;;;;;;5.85;1.67;;;37.60;15.80;;;;;;5033522;28;20049;-67
2022/07/18 08:39:32;;;;;;;7.97;1.60;;;37.70;16.20;;;;;;5034143;28;20056;-65
2022/07/18 08:42:00;;;;;;;2.83;1.23;;;38.40;15.80;;;;;;5034154;28;20443;-66
2022/07/18 08:44:28;;;;;;;3.20;1.50;;;37.60;15.50;;;;;;5033853;28;20032;-65
2022/07/18 08:46:57;;;;;;;2.97;1.40;;;36.50;16.30;;;;;;5033649;28;20026;-65
2022/07/18 08:49:23;;;;;;;11.05;2.13;;;35.70;17.50;;;;;;5033419;28;20092;-68
2022/07/18 08:51:49;;;;;;;2.15;0.98;;;35.90;18.00;;;;;;5031758;28;20025;-69
2022/07/18 08:54:15;;;;;;;9.15;1.90;;;36.40;16.90;;;;;;5015751;28;20048;-69
2022/07/18 08:56:41;;;;;;;5.90;1.73;;;35.90;18.10;;;;;;5033280;28;20116;-67
2022/07/18 08:59:07;;;;;;;9.48;1.30;;;35.50;18.30;;;;;;5032491;28;20112;-67
2022/07/18 09:01:33;;;;;;;5.47;1.63;;;34.20;18.10;;;;;;5033589;28;20025;-65
2022/07/18 09:04:18;;;;;;;5.30;1.65;;;33.60;19.40;;;;;;5033438;28;20025;-66
2022/07/18 09:06:49;;;;;;;5.30;1.75;;;33.80;19.20;;;;;;5033723;28;20037;-68
2022/07/18 09:09:17;;;;;;;4.70;1.27;;;34.00;19.10;;;;;;5032716;28;20081;-66
2022/07/18 09:12:09;;;;;;;3.72;1.25;;;33.00;19.40;;;;;;5033206;28;20506;-65
2022/07/18 09:14:38;;;;;;;7.80;1.38;;;32.40;20.20;;;;;;5028545;28;20037;-67
2022/07/18 09:17:20;;;;;;;7.80;1.63;;;32.70;20.10;;;;;;5032648;28;20029;-66
2022/07/18 09:20:04;;;;;;;10.75;1.58;;;33.30;21.20;;;;;;5033357;28;20029;-67
2022/07/18 09:22:32;;;;;;;3.63;1.73;;;34.30;19.20;;;;;;5033345;28;20029;-66
2022/07/18 09:25:08;;;;;;;9.02;2.00;;;35.30;19.30;;;;;;5032942;28;20026;-67
2022/07/18 09:27:33;;;;;;;6.78;1.40;;;35.70;18.70;;;;;;5032528;28;20104;-67
2022/07/18 09:30:10;;;;;;;7.25;1.60;;;34.40;18.40;;;;;;5014988;28;20116;-68
2022/07/18 09:32:37;;;;;;;5.18;1.80;;;33.60;19.20;;;;;;5033189;28;20021;-67
2022/07/18 09:35:18;;;;;;;5.72;2.17;;;32.10;20.70;;;;;;5032850;28;20041;-69
2022/07/18 09:38:10;;;;;;;6.65;1.52;;;32.70;21.30;;;;;;5031306;28;20009;-67
2022/07/18 09:40:41;;;;;;;5.65;1.67;;;33.70;20.30;;;;;;5031910;28;20037;-66
2022/07/18 09:43:09;;;;;;;2.85;1.05;;;33.50;20.80;;;;;;5031993;28;20033;-65
2022/07/18 09:45:38;;;;;;;3.40;1.30;;;33.40;20.50;;;;;;5032853;28;20029;-65
2022/07/18 09:48:08;;;;;;;5.15;1.30;;;33.50;20.10;;;;;;5032090;28;20017;-66
2022/07/18 09:50:51;;;;;;;7.18;1.25;;;32.40;20.50;;;;;;5032522;28;20021;-66
2022/07/18 09:53:25;;;;;;;5.15;1.80;;;31.70;21.30;;;;;;5032688;28;20116;-66
2022/07/18 09:55:56;;;;;;;5.00;1.40;;;32.10;21.10;;;;;;5032399;28;20025;-68
2022/07/18 09:58:27;;;;;;;3.40;1.85;;;32.10;22.10;;;;;;5031742;28;20053;-68
2022/07/18 10:00:55;;;;;;;5.10;1.70;;;32.00;23.20;;;;;;5032093;28;20029;-66
2022/07/18 10:03:22;;;;;;;5.82;1.73;;;32.60;22.60;;;;;;5032210;28;20029;-66
2022/07/18 10:05:49;;;;;;;7.47;1.50;;;32.50;20.40;;;;;;5032461;28;20033;-66
2022/07/18 10:08:17;;;;;;;7.88;1.38;;;31.40;21.90;;;;;;5032022;28;20499;-67
2022/07/18 10:10:45;;;;;;;4.30;1.73;;;30.80;22.70;;;;;;5032431;28;20040;-67
2022/07/18 10:13:11;;;;;;;4.13;1.90;;;30.70;24.00;;;;;;5032659;28;20030;-66
2022/07/18 10:15:39;;;;;;;12.57;1.48;;;31.30;24.10;;;;;;5032663;28;20018;-66
2022/07/18 10:18:07;;;;;;;4.93;1.35;;;31.70;22.40;;;;;;5032218;28;20369;-68
2022/07/18 10:20:34;;;;;;;4.38;1.60;;;31.90;22.50;;;;;;5032427;28;20034;-69
2022/07/18 10:23:08;;;;;;;5.00;1.85;;;32.00;23.50;;;;;;5032290;28;20047;-66
2022/07/18 10:25:36;;;;;;;2.88;1.17;;;32.20;21.80;;;;;;5032428;28;20351;-67
2022/07/18 10:28:05;;;;;;;5.97;2.10;;;31.70;22.10;;;;;;5031686;28;20140;-67
2022/07/18 10:30:34;;;;;;;8.63;2.00;;;31.40;23.90;;;;;;5027422;22;20033;-66
2022/07/18 10:33:00;;;;;;;8.10;1.58;;;31.20;22.20;;;;;;5012852;28;20040;-67
2022/07/18 10:36:05;;;;;;;4.22;1.40;;;30.30;22.80;;;;;;4994959;28;20029;-67
2022/07/18 10:38:30;;;;;;;2.97;1.20;;;29.90;22.90;;;;;;4994151;28;20105;-67
2022/07/18 10:41:13;;;;;;;5.03;1.88;;;29.90;25.80;;;;;;5012254;28;20478;-67
2022/07/18 10:43:43;;;;;;;11.07;1.80;;;30.20;24.00;;;;;;4994704;28;20041;-67
2022/07/18 10:46:11;;;;;;;5.85;1.20;;;29.90;23.90;;;;;;5012406;28;20056;-67
2022/07/18 10:48:37;;;;;;;4.32;1.70;;;29.70;23.70;;;;;;5011869;28;20505;-67
2022/07/18 10:51:07;;;;;;;2.92;1.77;;;29.80;24.30;;;;;;5012047;28;20125;-67
2022/07/18 10:53:56;;;;;;;3.75;1.63;;;30.20;25.40;;;;;;4994635;28;20542;-67
2022/07/18 10:56:28;;;;;;;7.15;1.67;;;30.40;24.50;;;;;;5012269;28;20104;-67
2022/07/18 10:59:14;;;;;;;4.13;1.67;;;30.60;25.00;;;;;;5011614;28;20037;-68
2022/07/18 11:01:56;;;;;;;4.53;1.40;;;30.40;23.40;;;;;;5011793;28;20040;-67
2022/07/18 11:04:37;;;;;;;6.38;1.42;;;29.30;24.50;;;;;;4994472;28;20045;-67
2022/07/18 11:07:10;;;;;;;5.95;1.23;;;28.60;24.90;;;;;;5011525;28;20436;-67
2022/07/18 11:09:43;;;;;;;4.47;1.63;;;28.40;25.20;;;;;;5011700;28;20034;-67
2022/07/18 11:12:41;;;;;;;9.48;1.63;;;28.50;25.40;;;;;;5011912;28;20080;-67
2022/07/18 11:15:12;;;;;;;9.05;1.40;;;28.80;25.20;;;;;;4977588;28;20041;-68
2022/07/18 11:17:58;;;;;;;;;;;29.20;24.70;;;;;;5011326;28;20546;-68
2022/07/18 11:20:43;;;;;;;3.00;1.33;;;29.50;25.30;;;;;;5011518;28;20011;-68
2022/07/18 11:23:14;;;;;;;4.05;1.55;;;30.20;24.60;;;;;;5011773;28;20104;-68
2022/07/18 11:25:40;;;;;;;4.30;1.33;;;30.30;23.30;;;;;;5011413;28;20492;-67
2022/07/18 11:28:10;;;;;;;6.88;1.40;;;30.10;23.40;;;;;;5011319;28;20037;-67
2022/07/18 11:30:37;;;;;;;8.13;1.90;;;30.00;23.80;;;;;;5011313;28;20080;-67
2022/07/18 11:33:03;;;;;;;7.57;1.65;;;29.60;23.90;;;;;;5011394;28;20093;-67
2022/07/18 11:35:29;;;;;;;3.72;1.90;;;29.60;24.80;;;;;;5011505;28;20029;-67
2022/07/18 11:37:55;;;;;;;5.95;2.00;;;29.90;24.50;;;;;;4993116;28;20053;-67
2022/07/18 11:40:22;;;;;;;3.58;1.45;;;30.00;23.40;;;;;;5011372;28;20029;-67
2022/07/18 11:42:48;;;;;;;4.97;1.27;;;30.10;23.60;;;;;;5011343;28;20154;-67
2022/07/18 11:45:15;;;;;;;5.28;1.77;;;30.10;25.00;;;;;;5011332;28;20036;-66
2022/07/18 11:47:49;;;;;;;4.80;1.80;;;30.40;23.80;;;;;;5010638;28;20030;-67
2022/07/18 11:50:17;;;;;;;4.55;1.40;;;30.80;23.20;;;;;;5011226;28;20437;-67
2022/07/18 11:52:44;;;;;;;4.63;1.52;;;31.00;23.80;;;;;;5011286;28;20574;-67
2022/07/18 11:55:13;;;;;;;5.50;1.90;;;31.00;23.00;;;;;;5011433;28;20061;-68
2022/07/18 11:57:39;;;;;;;5.28;2.60;;;31.30;24.20;;;;;;5010367;28;20476;-66
2022/07/18 12:00:17;;;;;;;8.38;2.83;;;31.50;24.10;;;;;;5011213;28;20033;-67
2022/07/18 12:02:42;;;;;;;7.53;2.90;;;31.90;23.50;;;;;;4993637;28;20033;-67
2022/07/18 12:05:08;;;;;;;4.78;2.58;;;32.10;23.60;;;;;;5010992;28;20022;-68
2022/07/18 12:07:34;;;;;;;4.10;2.03;;;32.30;23.10;;;;;;5008620;28;20030;-67
2022/07/18 12:10:16;;;;;;;5.18;2.42;;;32.40;22.20;;;;;;5010874;28;20088;-67
2022/07/18 12:12:41;;;;;;;5.10;2.20;;;32.40;22.90;;;;;;5011404;28;20979;-67
2022/07/18 12:15:08;;;;;;;5.10;2.47;;;32.40;23.00;;;;;;4993394;28;20137;-67
2022/07/18 12:17:44;;;;;;;3.17;2.00;;;32.70;22.00;;;;;;5010514;28;20022;-67
2022/07/18 12:20:12;;;;;;;9.10;2.08;;;32.70;22.40;;;;;;5011680;28;20026;-67
2022/07/18 12:23:08;;;;;;;3.97;2.33;;;32.70;21.20;;;;;;5011199;28;20033;-67
2022/07/18 12:25:56;;;;;;;3.65;1.92;;;32.40;22.00;;;;;;4991557;28;20027;-68
2022/07/18 12:28:25;;;;;;;4.82;2.10;;;32.40;22.50;;;;;;4994534;28;20089;-68
2022/07/18 12:30:51;;;;;;;4.07;1.80;;;32.50;23.70;;;;;;4994948;28;20492;-68
2022/07/18 12:33:17;;;;;;;5.35;2.10;;;32.60;22.70;;;;;;4977617;28;20026;-67
2022/07/18 12:35:43;;;;;;;6.53;1.98;;;32.30;22.30;;;;;;4995034;28;20022;-68
2022/07/18 12:38:16;;;;;;;6.22;2.00;;;31.50;22.70;;;;;;4994678;28;20492;-67
2022/07/18 12:41:01;;;;;;;11.82;2.28;;;30.80;23.00;;;;;;5001987;28;20022;-67
2022/07/18 12:43:31;;;;;;;3.60;1.65;;;30.80;25.10;;;;;;4996770;28;20026;-67
2022/07/18 12:45:57;;;;;;;5.70;2.22;;;31.20;23.70;;;;;;4996978;28;20037;-68
2022/07/18 12:48:23;;;;;;;4.22;1.75;;;31.50;23.70;;;;;;5013880;28;20108;-68
2022/07/18 12:51:00;;;;;;;3.60;1.40;;;31.90;24.10;;;;;;5014276;28;20161;-68
2022/07/18 12:53:26;;;;;;;4.53;2.05;;;31.90;22.10;;;;;;5014291;28;20056;-67
2022/07/18 12:55:52;;;;;;;5.95;1.58;;;31.90;23.90;;;;;;5013878;28;20022;-69
2022/07/18 12:58:18;;;;;;;8.30;1.95;;;31.90;22.90;;;;;;5013223;28;20253;-67
2022/07/18 13:00:45;;;;;;;4.30;1.88;;;31.20;22.70;;;;;;4996183;28;20022;-68
2022/07/18 13:03:11;;;;;;;3.42;1.70;;;31.10;23.30;;;;;;5014316;28;20392;-67
2022/07/18 13:05:36;;;;;;;3.92;1.90;;;31.20;23.00;;;;;;5013992;28;20026;-69
2022/07/18 13:08:02;;;;;;;4.10;1.90;;;31.30;23.80;;;;;;5013383;28;20097;-68
2022/07/18 13:10:28;;;;;;;4.38;1.85;;;31.60;24.20;;;;;;5013622;28;20467;-68
2022/07/18 13:12:54;;;;;;;4.22;1.58;;;31.90;23.50;;;;;;5014304;28;20022;-66